createdAt,value
2023-09-27T00:00:12.391Z,99.90
2023-09-27T00:02:41.284Z,99.90
2023-09-27T00:05:12.057Z,99.90
2023-09-27T00:07:42.529Z,99.90
2023-09-27T00:10:12.610Z,99.90
2023-09-27T00:12:42.531Z,99.90
2023-09-27T00:15:13.035Z,99.90
2023-09-27T00:17:42.815Z,99.90
2023-09-27T00:20:17.033Z,99.90
2023-09-27T00:22:46.027Z,99.90
2023-09-27T00:25:15.385Z,99.90
2023-09-27T00:27:45.307Z,99.90
2023-09-27T00:30:15.319Z,99.90
2023-09-27T00:32:43.792Z,99.90
2023-09-27T00:35:15.912Z,99.90
2023-09-27T00:37:44.071Z,99.90
2023-09-27T00:40:16.389Z,99.90
2023-09-27T00:42:45.767Z,99.90
2023-09-27T00:45:13.781Z,99.90
2023-09-27T00:47:43.163Z,99.90
2023-09-27T00:50:11.406Z,99.90
2023-09-27T00:52:42.179Z,99.90
2023-09-27T00:55:13.237Z,99.90
2023-09-27T00:57:41.994Z,99.90
2023-09-27T01:00:12.736Z,99.90
2023-09-27T01:02:41.314Z,99.90
2023-09-27T01:05:10.999Z,99.90
2023-09-27T01:07:40.752Z,99.90
2023-09-27T01:10:10.117Z,99.90
2023-09-27T01:12:39.041Z,99.90
2023-09-27T01:15:08.693Z,99.90
2023-09-27T01:17:38.351Z,99.90
2023-09-27T01:20:08.018Z,99.90
2023-09-27T01:22:36.259Z,99.90
2023-09-27T01:25:09.790Z,99.90
2023-09-27T01:27:38.631Z,99.90
2023-09-27T01:30:08.029Z,99.90
2023-09-27T01:32:38.314Z,99.90
2023-09-27T01:35:07.503Z,99.90
2023-09-27T01:37:35.689Z,99.90
2023-09-27T01:40:10.371Z,99.90
2023-09-27T01:42:43.416Z,99.90
2023-09-27T01:45:12.618Z,99.90
2023-09-27T01:47:41.036Z,99.90
2023-09-27T01:50:10.982Z,99.90
2023-09-27T01:52:39.120Z,99.90
2023-09-27T01:55:09.443Z,99.90
2023-09-27T01:57:37.459Z,99.90
2023-09-27T02:00:10.372Z,99.90
2023-09-27T02:02:38.524Z,99.90
2023-09-27T02:05:07.529Z,99.90
2023-09-27T02:07:35.588Z,99.90
2023-09-27T02:10:03.685Z,99.90
2023-09-27T02:12:33.064Z,99.90
2023-09-27T02:15:01.675Z,99.90
2023-09-27T02:17:29.689Z,99.90
2023-09-27T02:19:57.864Z,99.90
2023-09-27T02:22:25.894Z,99.90
2023-09-27T02:24:54.811Z,99.90
2023-09-27T02:27:22.966Z,99.90
2023-09-27T02:29:52.371Z,99.90
2023-09-27T02:32:20.431Z,99.90
2023-09-27T02:34:48.835Z,99.90
2023-09-27T02:37:17.971Z,99.90
2023-09-27T02:39:46.021Z,99.90
2023-09-27T02:42:14.165Z,99.90
2023-09-27T02:44:42.174Z,99.90
2023-09-27T02:47:11.801Z,99.90
2023-09-27T02:49:39.841Z,99.90
2023-09-27T02:52:08.332Z,99.90
2023-09-27T02:54:36.375Z,99.90
2023-09-27T02:57:04.958Z,99.90
2023-09-27T02:59:34.303Z,99.90
2023-09-27T03:02:02.437Z,99.90
2023-09-27T03:04:33.236Z,99.90
2023-09-27T03:07:01.354Z,99.90
2023-09-27T03:09:29.326Z,99.90
2023-09-27T03:11:57.265Z,99.90
2023-09-27T03:14:25.714Z,99.90
2023-09-27T03:16:53.762Z,99.90
2023-09-27T03:19:23.511Z,99.90
2023-09-27T03:21:53.342Z,99.90
2023-09-27T03:24:21.606Z,99.90
2023-09-27T03:26:50.533Z,99.90
2023-09-27T03:29:18.554Z,99.90
2023-09-27T03:31:47.119Z,99.90
2023-09-27T03:34:15.106Z,99.90
2023-09-27T03:36:45.165Z,99.90
2023-09-27T03:39:15.145Z,99.90
2023-09-27T03:41:43.299Z,99.90
2023-09-27T03:44:11.323Z,99.90
2023-09-27T03:46:39.500Z,99.90
2023-09-27T03:49:07.611Z,99.90
2023-09-27T03:51:35.669Z,99.90
2023-09-27T03:54:03.714Z,99.90
2023-09-27T03:56:33.051Z,99.90
2023-09-27T03:59:01.097Z,99.90
2023-09-27T04:01:29.103Z,99.90
2023-09-27T04:03:57.218Z,99.90
2023-09-27T04:06:25.877Z,99.90
2023-09-27T04:08:54.015Z,99.90
2023-09-27T04:11:22.241Z,99.90
2023-09-27T04:13:51.646Z,99.90
2023-09-27T04:16:19.909Z,99.90
2023-09-27T04:18:48.018Z,99.90
2023-09-27T04:21:16.001Z,99.90
2023-09-27T04:23:44.342Z,99.90
2023-09-27T04:26:12.363Z,99.90
2023-09-27T04:28:40.369Z,99.90
2023-09-27T04:31:10.619Z,99.90
2023-09-27T04:33:42.127Z,99.90
2023-09-27T04:36:16.519Z,99.90
2023-09-27T04:38:45.262Z,99.90
2023-09-27T04:41:15.621Z,99.90
2023-09-27T04:43:44.056Z,99.90
2023-09-27T04:46:16.134Z,99.90
2023-09-27T04:48:44.277Z,99.90
2023-09-27T04:51:12.312Z,99.90
2023-09-27T04:53:40.627Z,99.90
2023-09-27T04:56:11.574Z,99.90
2023-09-27T04:58:40.156Z,99.90
2023-09-27T05:01:10.286Z,99.90
2023-09-27T05:03:40.075Z,99.90
2023-09-27T05:06:08.296Z,99.90
2023-09-27T05:08:36.530Z,99.90
2023-09-27T05:11:04.712Z,99.90
2023-09-27T05:13:32.830Z,99.90
2023-09-27T05:16:00.955Z,99.90
2023-09-27T05:18:29.028Z,99.90
2023-09-27T05:21:01.081Z,99.90
2023-09-27T05:23:29.214Z,99.90
2023-09-27T05:25:57.378Z,99.90
2023-09-27T05:28:25.415Z,99.90
2023-09-27T05:30:54.028Z,99.90
2023-09-27T05:33:22.447Z,99.90
2023-09-27T05:35:51.398Z,99.90
2023-09-27T05:38:21.810Z,99.90
2023-09-27T05:40:50.162Z,99.90
2023-09-27T05:43:18.346Z,99.90
2023-09-27T05:45:46.357Z,99.90
2023-09-27T05:48:15.428Z,99.90
2023-09-27T05:50:45.755Z,99.90
2023-09-27T05:53:14.095Z,99.90
2023-09-27T05:55:43.498Z,99.90
2023-09-27T05:58:11.515Z,99.90
2023-09-27T06:00:41.504Z,99.90
2023-09-27T06:03:09.981Z,99.90
2023-09-27T06:05:38.170Z,99.90
2023-09-27T06:08:06.538Z,99.90
2023-09-27T06:10:35.000Z,99.90
2023-09-27T06:13:06.284Z,99.90
2023-09-27T06:15:35.384Z,99.90
2023-09-27T06:18:06.907Z,99.90
2023-09-27T06:20:34.987Z,99.90
2023-09-27T06:23:05.019Z,99.90
2023-09-27T06:25:35.641Z,99.90
2023-09-27T06:28:05.807Z,99.90
2023-09-27T06:30:33.868Z,99.90
2023-09-27T06:33:01.949Z,99.90
2023-09-27T06:35:33.306Z,99.90
2023-09-27T06:38:02.542Z,99.90
2023-09-27T06:40:30.749Z,99.90
2023-09-27T06:42:59.025Z,99.90
2023-09-27T06:45:28.558Z,99.90
2023-09-27T06:47:57.464Z,99.90
2023-09-27T06:50:26.185Z,99.90
2023-09-27T06:53:06.483Z,99.90
2023-09-27T06:55:42.748Z,99.90
2023-09-27T06:58:10.741Z,99.90
2023-09-27T07:00:42.604Z,99.90
2023-09-27T07:03:10.688Z,99.90
2023-09-27T07:05:38.838Z,99.90
2023-09-27T07:08:07.253Z,99.90
2023-09-27T07:10:36.297Z,99.90
2023-09-27T07:13:05.161Z,99.90
2023-09-27T07:15:33.496Z,99.90
2023-09-27T07:18:05.114Z,99.90
2023-09-27T07:20:36.122Z,99.90
2023-09-27T07:23:05.638Z,99.90
2023-09-27T07:25:36.676Z,99.90
2023-09-27T07:28:06.370Z,99.90
2023-09-27T07:30:35.615Z,99.90
2023-09-27T07:33:07.852Z,99.90
2023-09-27T07:35:36.554Z,99.90
2023-09-27T07:38:09.000Z,99.90
2023-09-27T07:40:41.029Z,99.90
2023-09-27T07:43:09.305Z,99.90
2023-09-27T07:45:41.106Z,99.90
2023-09-27T07:48:11.644Z,99.90
2023-09-27T07:50:41.387Z,99.90
2023-09-27T07:53:10.105Z,99.90
2023-09-27T07:55:47.620Z,99.90
2023-09-27T07:58:15.842Z,99.90
2023-09-27T08:00:44.583Z,99.90
2023-09-27T08:03:15.638Z,99.90
2023-09-27T08:05:47.145Z,99.90
2023-09-27T08:08:16.059Z,99.90
2023-09-27T08:10:46.610Z,99.90
2023-09-27T08:13:16.058Z,99.90
2023-09-27T08:15:45.942Z,99.90
2023-09-27T08:18:15.383Z,99.90
2023-09-27T08:20:43.520Z,99.90
2023-09-27T08:23:12.723Z,99.90
2023-09-27T08:33:07.625Z,99.90
2023-09-27T08:35:37.143Z,99.90
2023-09-27T08:38:05.410Z,99.90
2023-09-27T08:40:33.979Z,99.90
2023-09-27T08:43:02.550Z,99.90
2023-09-27T08:45:32.768Z,99.90
2023-09-27T08:48:00.990Z,99.90
2023-09-27T08:50:30.110Z,99.90
2023-09-27T08:52:59.588Z,99.90
2023-09-27T08:55:27.834Z,99.90
2023-09-27T08:57:57.825Z,99.90
2023-09-27T09:00:28.323Z,99.90
2023-09-27T09:03:00.385Z,99.90
2023-09-27T09:08:02.248Z,99.90
2023-09-27T09:10:30.874Z,99.90
2023-09-27T09:13:00.756Z,99.90
2023-09-27T09:15:36.058Z,99.90
2023-09-27T09:18:07.895Z,99.90
2023-09-27T09:20:50.318Z,99.90
2023-09-27T09:23:34.803Z,99.90
2023-09-27T09:26:03.945Z,99.60
2023-09-27T09:28:31.920Z,99.90
2023-09-27T09:31:00.998Z,99.90
2023-09-27T09:33:30.666Z,99.90
2023-09-27T09:35:58.923Z,99.60
2023-09-27T09:38:30.246Z,99.40
2023-09-27T09:41:02.708Z,99.90
2023-09-27T09:43:35.607Z,99.90
2023-09-27T09:46:07.450Z,99.90
2023-09-27T09:48:36.655Z,99.90
2023-09-27T09:51:07.847Z,99.90
2023-09-27T09:53:40.022Z,99.20
2023-09-27T09:58:45.875Z,98.60
2023-09-27T10:01:20.814Z,99.10
2023-09-27T10:03:51.623Z,98.30
2023-09-27T10:06:32.440Z,98.40
2023-09-27T10:09:06.823Z,98.80
2023-09-27T10:11:38.062Z,97.80
2023-09-27T10:14:07.298Z,97.70
2023-09-27T10:16:35.720Z,97.60
2023-09-27T10:19:06.467Z,96.60
2023-09-27T10:21:34.499Z,97.40
2023-09-27T10:24:05.478Z,96.00
2023-09-27T10:26:40.016Z,95.70
2023-09-27T10:29:18.787Z,95.50
2023-09-27T10:32:20.056Z,94.30
2023-09-27T10:34:52.874Z,95.80
2023-09-27T10:37:58.758Z,95.60
2023-09-27T10:40:27.011Z,95.10
2023-09-27T10:42:57.484Z,94.70
2023-09-27T10:45:25.593Z,95.20
2023-09-27T10:47:56.077Z,95.20
2023-09-27T10:50:32.128Z,95.30
2023-09-27T10:53:01.648Z,95.60
2023-09-27T10:55:41.983Z,95.10
2023-09-27T10:58:13.938Z,95.60
2023-09-27T11:00:52.465Z,94.80
2023-09-27T11:03:21.246Z,96.80
2023-09-27T11:05:49.714Z,95.50
2023-09-27T11:08:23.247Z,95.50
2023-09-27T11:10:53.963Z,96.30
2023-09-27T11:13:23.694Z,95.40
2023-09-27T11:15:52.101Z,95.80
2023-09-27T11:18:20.459Z,96.40
2023-09-27T11:20:48.715Z,96.20
2023-09-27T11:23:16.752Z,95.40
2023-09-27T11:25:46.832Z,95.00
2023-09-27T11:28:17.462Z,95.00
2023-09-27T11:30:46.835Z,94.00
2023-09-27T11:33:18.052Z,94.50
2023-09-27T11:35:49.685Z,93.30
2023-09-27T11:38:17.874Z,92.40
2023-09-27T11:40:47.646Z,92.60
2023-09-27T11:43:15.945Z,91.90
2023-09-27T11:45:49.877Z,92.80
2023-09-27T11:48:18.960Z,92.20
2023-09-27T11:50:47.498Z,92.90
2023-09-27T11:53:15.823Z,92.70
2023-09-27T11:55:44.281Z,91.60
2023-09-27T11:58:13.039Z,90.60
2023-09-27T12:00:41.265Z,91.50
2023-09-27T12:03:11.734Z,90.90
2023-09-27T12:05:40.629Z,91.90
2023-09-27T12:08:09.328Z,92.30
2023-09-27T12:10:37.413Z,90.70
2023-09-27T12:13:06.406Z,88.30
2023-09-27T12:15:34.467Z,91.10
2023-09-27T12:18:02.627Z,91.30
2023-09-27T12:20:40.571Z,90.20
2023-09-27T12:23:11.697Z,88.60
2023-09-27T12:25:39.988Z,89.30
2023-09-27T12:28:08.264Z,87.20
2023-09-27T12:30:36.485Z,87.40
2023-09-27T12:33:05.136Z,90.00
2023-09-27T12:35:34.737Z,91.20
2023-09-27T12:38:05.423Z,90.90
2023-09-27T12:40:34.444Z,90.90
2023-09-27T12:43:02.601Z,89.00
2023-09-27T12:45:31.523Z,91.20
2023-09-27T12:47:59.896Z,84.80
2023-09-27T12:50:28.898Z,91.20
2023-09-27T12:52:59.060Z,86.90
2023-09-27T12:55:27.064Z,90.20
2023-09-27T12:57:55.310Z,90.40
2023-09-27T13:00:23.489Z,89.00
2023-09-27T13:02:52.093Z,88.10
2023-09-27T13:05:20.370Z,88.70
2023-09-27T13:07:48.480Z,90.10
2023-09-27T13:10:17.928Z,84.80
2023-09-27T13:12:46.434Z,89.60
2023-09-27T13:15:14.404Z,88.20
2023-09-27T13:17:42.523Z,90.30
2023-09-27T13:20:11.386Z,85.40
2023-09-27T13:22:39.958Z,86.00
2023-09-27T13:25:10.210Z,86.80
2023-09-27T13:27:41.728Z,88.80
2023-09-27T13:30:29.314Z,88.30
2023-09-27T13:33:00.770Z,88.70
2023-09-27T13:35:29.754Z,87.40
2023-09-27T13:37:57.762Z,84.50
2023-09-27T13:40:25.800Z,90.00
2023-09-27T13:42:55.147Z,89.80
2023-09-27T13:45:23.554Z,88.40
2023-09-27T13:47:51.814Z,89.60
2023-09-27T13:50:20.011Z,89.00
2023-09-27T13:52:49.506Z,86.10
2023-09-27T13:55:17.681Z,86.80
2023-09-27T13:57:45.659Z,86.60
2023-09-27T14:00:17.025Z,89.60
2023-09-27T14:02:45.279Z,90.30
2023-09-27T14:05:13.464Z,88.10
2023-09-27T14:07:43.335Z,88.20
2023-09-27T14:10:11.943Z,90.00
2023-09-27T14:12:40.157Z,87.40
2023-09-27T14:15:09.145Z,87.20
2023-09-27T14:17:40.018Z,89.30
2023-09-27T14:20:11.417Z,91.10
2023-09-27T14:22:40.598Z,90.30
2023-09-27T14:25:09.494Z,91.50
2023-09-27T14:27:37.466Z,90.80
2023-09-27T14:30:07.424Z,89.70
2023-09-27T14:32:35.566Z,89.00
2023-09-27T14:35:05.375Z,89.50
2023-09-27T14:37:34.052Z,88.50
2023-09-27T14:40:02.607Z,89.60
2023-09-27T14:42:30.981Z,88.60
2023-09-27T14:44:59.382Z,90.10
2023-09-27T14:47:27.482Z,90.50
2023-09-27T14:49:58.702Z,88.10
2023-09-27T14:52:28.304Z,88.20
2023-09-27T14:54:56.941Z,90.50
2023-09-27T14:57:25.145Z,88.40
2023-09-27T14:59:53.734Z,88.30
2023-09-27T15:02:21.778Z,86.90
2023-09-27T15:04:49.938Z,87.50
2023-09-27T15:07:20.314Z,87.40
2023-09-27T15:09:49.929Z,87.70
2023-09-27T15:12:17.929Z,87.40
2023-09-27T15:14:45.982Z,87.60
2023-09-27T15:17:13.983Z,87.30
2023-09-27T15:19:42.006Z,87.20
2023-09-27T15:22:10.489Z,87.40
2023-09-27T15:24:39.101Z,87.80
2023-09-27T15:27:10.095Z,86.60
2023-09-27T15:29:38.258Z,87.40
2023-09-27T15:32:06.568Z,88.10
2023-09-27T15:34:36.541Z,88.50
2023-09-27T15:37:04.521Z,89.10
2023-09-27T15:39:32.493Z,89.50
2023-09-27T15:42:00.532Z,90.00
2023-09-27T15:44:37.950Z,89.70
2023-09-27T15:47:06.200Z,89.60
2023-09-27T15:49:34.311Z,89.40
2023-09-27T15:52:02.353Z,88.30
2023-09-27T15:54:30.343Z,89.00
2023-09-27T15:56:58.331Z,90.20
2023-09-27T15:59:26.437Z,90.10
2023-09-27T16:01:57.526Z,90.50
2023-09-27T16:04:27.845Z,90.70
2023-09-27T16:06:56.020Z,90.90
2023-09-27T16:09:24.111Z,91.20
2023-09-27T16:11:52.265Z,91.30
2023-09-27T16:14:20.245Z,91.60
2023-09-27T16:16:48.220Z,91.50
2023-09-27T16:19:17.633Z,91.70
2023-09-27T16:21:45.732Z,92.10
2023-09-27T16:24:13.820Z,91.70
2023-09-27T16:26:41.901Z,92.70
2023-09-27T16:29:09.963Z,91.60
2023-09-27T16:31:38.867Z,91.70
2023-09-27T16:34:06.957Z,92.90
2023-09-27T16:36:36.693Z,92.10
2023-09-27T16:39:04.857Z,92.70
2023-09-27T16:41:33.017Z,92.90
2023-09-27T16:44:01.605Z,93.00
2023-09-27T16:46:29.617Z,92.60
2023-09-27T16:48:57.616Z,93.70
2023-09-27T16:51:25.877Z,93.70
2023-09-27T16:53:55.477Z,94.20
2023-09-27T16:56:23.730Z,93.80
2023-09-27T16:58:51.741Z,94.50
2023-09-27T17:01:23.888Z,94.40
2023-09-27T17:03:52.284Z,94.60
2023-09-27T17:06:20.857Z,95.10
2023-09-27T17:08:49.208Z,95.50
2023-09-27T17:11:24.258Z,95.80
2023-09-27T17:13:54.317Z,96.00
2023-09-27T17:16:24.139Z,95.80
2023-09-27T17:18:53.199Z,96.10
2023-09-27T17:21:21.245Z,96.60
2023-09-27T17:23:50.568Z,96.90
2023-09-27T17:26:18.827Z,97.20
2023-09-27T17:28:48.406Z,97.30
2023-09-27T17:31:16.462Z,97.80
2023-09-27T17:33:44.630Z,97.90
2023-09-27T17:36:14.981Z,98.20
2023-09-27T17:38:43.200Z,98.60
2023-09-27T17:41:11.149Z,98.70
2023-09-27T17:43:39.174Z,99.10
2023-09-27T17:46:22.583Z,99.00
2023-09-27T17:48:50.840Z,99.30
2023-09-27T17:51:19.619Z,99.50
2023-09-27T17:53:48.472Z,99.90
2023-09-27T17:56:16.601Z,99.90
2023-09-27T17:58:44.798Z,99.90
2023-09-27T18:01:12.835Z,99.90
2023-09-27T18:03:42.658Z,99.90
2023-09-27T18:06:12.072Z,99.90
2023-09-27T18:08:42.286Z,99.90
2023-09-27T18:11:11.571Z,99.90
2023-09-27T18:13:40.319Z,99.90
2023-09-27T18:16:16.208Z,99.90
2023-09-27T18:18:47.018Z,99.90
2023-09-27T18:21:16.690Z,99.90
2023-09-27T18:23:46.026Z,99.90
2023-09-27T18:26:14.426Z,99.90
2023-09-27T18:28:43.420Z,99.90
2023-09-27T18:31:12.177Z,99.90
2023-09-27T18:33:41.043Z,99.90
2023-09-27T18:36:10.556Z,99.90
2023-09-27T18:38:38.578Z,99.90
2023-09-27T18:41:06.845Z,99.90
2023-09-27T18:43:34.921Z,99.90
2023-09-27T18:46:03.450Z,99.90
2023-09-27T18:48:31.702Z,99.90
2023-09-27T18:50:59.929Z,99.90
2023-09-27T18:53:29.819Z,99.90
2023-09-27T18:55:57.908Z,99.90
2023-09-27T18:58:26.172Z,99.90
2023-09-27T19:00:54.278Z,99.90
2023-09-27T19:03:24.415Z,99.90
2023-09-27T19:05:52.417Z,99.90
2023-09-27T19:08:20.529Z,99.90
2023-09-27T19:10:50.144Z,99.90
2023-09-27T19:13:18.260Z,99.90
2023-09-27T19:15:52.837Z,99.90
2023-09-27T19:18:21.075Z,99.90
2023-09-27T19:20:49.393Z,99.90
2023-09-27T19:23:17.434Z,99.90
2023-09-27T19:25:47.035Z,99.90
2023-09-27T19:28:16.476Z,99.90
2023-09-27T19:30:44.543Z,99.90
2023-09-27T19:33:12.718Z,99.90
2023-09-27T19:35:40.875Z,99.90
2023-09-27T19:38:11.990Z,99.90
2023-09-27T19:40:40.167Z,99.90
2023-09-27T19:43:08.288Z,99.90
2023-09-27T19:45:40.597Z,99.90
2023-09-27T19:48:08.988Z,99.90
2023-09-27T19:50:40.880Z,99.90
2023-09-27T19:53:09.140Z,99.90
2023-09-27T19:55:37.530Z,99.90
2023-09-27T19:58:06.663Z,99.90
2023-09-27T20:00:34.995Z,99.90
2023-09-27T20:03:04.706Z,99.90
2023-09-27T20:05:34.164Z,99.90
2023-09-27T20:08:03.503Z,99.90
2023-09-27T20:10:31.686Z,99.90
2023-09-27T20:12:59.713Z,99.90
2023-09-27T20:15:28.607Z,99.90
2023-09-27T20:17:56.874Z,99.90
2023-09-27T20:20:26.516Z,99.90
2023-09-27T20:22:54.683Z,99.90
2023-09-27T20:25:22.861Z,99.90
2023-09-27T20:27:51.340Z,99.90
2023-09-27T20:30:19.646Z,99.90
2023-09-27T20:32:47.982Z,99.90
2023-09-27T20:35:16.447Z,99.90
2023-09-27T20:37:46.126Z,99.90
2023-09-27T20:40:16.934Z,99.90
2023-09-27T20:42:45.157Z,99.90
2023-09-27T20:45:13.820Z,99.90
2023-09-27T20:47:42.862Z,99.90
2023-09-27T20:50:12.389Z,99.90
2023-09-27T20:52:40.805Z,99.90
2023-09-27T20:55:12.293Z,99.90
2023-09-27T20:57:40.853Z,99.90
2023-09-27T21:00:11.374Z,99.90
2023-09-27T21:02:40.645Z,99.90
2023-09-27T21:05:09.396Z,99.90
2023-09-27T21:07:39.610Z,99.90
2023-09-27T21:10:08.499Z,99.90
2023-09-27T21:12:38.143Z,99.90
2023-09-27T21:15:09.483Z,99.90
2023-09-27T21:17:37.670Z,99.90
2023-09-27T21:20:07.291Z,99.90
2023-09-27T21:22:35.608Z,99.90
2023-09-27T21:25:03.747Z,99.90
2023-09-27T21:27:32.114Z,99.90
2023-09-27T21:30:05.025Z,99.90
2023-09-27T21:32:33.355Z,99.90
2023-09-27T21:35:01.780Z,99.90
2023-09-27T21:37:30.143Z,99.90
2023-09-27T21:39:58.804Z,99.90
2023-09-27T21:42:26.895Z,99.90
2023-09-27T21:44:55.214Z,99.90
2023-09-27T21:47:24.570Z,99.90
2023-09-27T21:49:52.762Z,99.90
2023-09-27T21:52:20.785Z,99.90
2023-09-27T21:54:48.852Z,99.90
2023-09-27T21:57:16.917Z,99.90
2023-09-27T21:59:45.006Z,99.90
2023-09-27T22:02:14.054Z,99.90
2023-09-27T22:04:43.715Z,99.90
2023-09-27T22:07:12.884Z,99.90
2023-09-27T22:09:42.224Z,99.90
2023-09-27T22:12:10.432Z,99.90
2023-09-27T22:14:47.929Z,99.90
2023-09-27T22:17:17.067Z,99.90
2023-09-27T22:19:46.721Z,99.90
2023-09-27T22:22:22.246Z,99.90
2023-09-27T22:24:53.287Z,99.90
2023-09-27T22:27:27.902Z,99.90
2023-09-27T22:29:57.337Z,99.90
2023-09-27T22:32:26.503Z,99.90
2023-09-27T22:34:57.175Z,99.90
2023-09-27T22:37:25.461Z,99.90
2023-09-27T22:40:08.387Z,99.90
2023-09-27T22:42:42.719Z,99.90
2023-09-27T22:45:28.963Z,99.90
2023-09-27T22:47:57.778Z,99.90
2023-09-27T22:50:31.383Z,99.90
2023-09-27T22:53:01.473Z,99.90
2023-09-27T22:55:29.592Z,99.90
2023-09-27T22:57:58.193Z,99.90
2023-09-27T23:00:26.745Z,99.90
2023-09-27T23:02:56.802Z,99.90
2023-09-27T23:05:33.680Z,99.90
2023-09-27T23:08:03.385Z,99.90
2023-09-27T23:10:37.317Z,99.90
2023-09-27T23:13:06.756Z,99.90
2023-09-27T23:15:41.295Z,99.90
2023-09-27T23:18:15.089Z,99.90
2023-09-27T23:20:44.783Z,99.90
2023-09-27T23:23:17.329Z,99.90
2023-09-27T23:25:53.541Z,99.90
2023-09-27T23:28:44.499Z,99.90
2023-09-27T23:31:11.949Z,99.90
2023-09-27T23:33:44.562Z,99.90
2023-09-27T23:36:24.994Z,99.90
2023-09-27T23:39:04.626Z,99.90
2023-09-27T23:41:32.232Z,99.90
2023-09-27T23:44:02.142Z,99.90
2023-09-27T23:46:30.624Z,99.90
2023-09-27T23:49:03.166Z,99.90
2023-09-27T23:51:34.415Z,99.90
2023-09-27T23:54:04.195Z,99.90
2023-09-27T23:56:32.593Z,99.90
2023-09-27T23:59:09.661Z,99.90
